createdAt,value
2018-05-27T00:00:53.792Z,7.13
2018-05-27T00:03:56.290Z,6.17
2018-05-27T00:06:58.754Z,7.10
2018-05-27T00:10:01.263Z,6.47
2018-05-27T00:13:03.852Z,7.87
2018-05-27T00:16:07.507Z,6.93
2018-05-27T00:19:10.713Z,6.77
2018-05-27T00:22:13.245Z,8.00
2018-05-27T00:25:15.726Z,7.77
2018-05-27T00:28:19.186Z,6.87
2018-05-27T00:31:21.668Z,6.70
2018-05-27T00:34:24.168Z,7.30
2018-05-27T00:37:26.638Z,7.43
2018-05-27T00:40:29.201Z,7.17
2018-05-27T00:43:31.742Z,6.77
2018-05-27T00:46:34.227Z,7.73
2018-05-27T00:49:36.711Z,7.70
2018-05-27T00:52:39.278Z,8.03
2018-05-27T00:55:41.715Z,7.60
2018-05-27T00:58:44.195Z,8.07
2018-05-27T01:01:46.640Z,7.90
2018-05-27T01:04:49.143Z,7.30
2018-05-27T01:07:51.657Z,7.77
2018-05-27T01:10:54.135Z,8.67
2018-05-27T01:13:56.744Z,7.43
2018-05-27T01:16:59.332Z,7.40
2018-05-27T01:20:01.812Z,7.80
2018-05-27T01:23:04.327Z,8.47
2018-05-27T01:26:06.809Z,6.60
2018-05-27T01:29:09.264Z,6.50
2018-05-27T01:32:11.751Z,7.97
2018-05-27T01:35:14.196Z,8.07
2018-05-27T01:38:16.782Z,7.20
2018-05-27T01:41:19.260Z,6.33
2018-05-27T01:44:21.722Z,6.80
2018-05-27T01:47:24.197Z,6.90
2018-05-27T01:50:26.683Z,6.80
2018-05-27T01:53:29.246Z,7.17
2018-05-27T01:56:31.778Z,7.10
2018-05-27T01:59:34.339Z,7.70
2018-05-27T02:02:36.827Z,7.27
2018-05-27T02:05:39.304Z,7.83
2018-05-27T02:08:41.743Z,7.50
2018-05-27T02:11:44.218Z,8.30
2018-05-27T02:14:46.652Z,8.70
2018-05-27T02:17:49.133Z,8.53
2018-05-27T02:20:51.583Z,7.53
2018-05-27T02:23:54.078Z,6.73
2018-05-27T02:26:56.523Z,6.93
2018-05-27T02:29:58.996Z,7.90
2018-05-27T02:33:01.435Z,8.27
2018-05-27T02:36:03.912Z,9.10
2018-05-27T02:39:06.390Z,9.63
2018-05-27T02:42:08.920Z,9.43
2018-05-27T02:45:11.388Z,9.17
2018-05-27T02:48:13.845Z,10.40
2018-05-27T02:51:16.319Z,8.60
2018-05-27T02:54:18.794Z,10.30
2018-05-27T02:57:21.302Z,9.60
2018-05-27T03:00:23.787Z,10.10
2018-05-27T03:03:26.224Z,8.67
2018-05-27T03:06:28.710Z,8.30
2018-05-27T03:09:31.248Z,8.07
2018-05-27T03:12:33.734Z,8.67
2018-05-27T03:15:36.248Z,9.17
2018-05-27T03:18:38.720Z,8.67
2018-05-27T03:21:41.150Z,8.33
2018-05-27T03:24:43.675Z,8.50
2018-05-27T03:27:46.110Z,8.77
2018-05-27T03:30:48.603Z,9.40
2018-05-27T03:33:51.108Z,9.40
2018-05-27T03:36:53.597Z,8.10
2018-05-27T03:39:56.287Z,8.67
2018-05-27T03:42:58.750Z,8.70
2018-05-27T03:46:01.282Z,8.30
2018-05-27T03:49:03.757Z,8.50
2018-05-27T03:52:06.229Z,9.03
2018-05-27T03:55:08.769Z,8.90
2018-05-27T03:58:11.239Z,9.20
2018-05-27T04:01:14.667Z,10.00
2018-05-27T04:04:28.714Z,9.17
2018-05-27T04:07:42.890Z,9.87
2018-05-27T04:10:45.344Z,10.20
2018-05-27T04:13:47.826Z,10.47
2018-05-27T04:16:50.286Z,10.17
2018-05-27T04:19:52.829Z,9.07
2018-05-27T04:22:55.393Z,9.80
2018-05-27T04:25:57.857Z,11.07
2018-05-27T04:29:00.372Z,10.37
2018-05-27T04:32:02.871Z,9.93
2018-05-27T04:35:05.299Z,10.57
2018-05-27T04:38:07.764Z,11.07
2018-05-27T04:41:10.243Z,10.73
2018-05-27T04:44:12.694Z,10.53
2018-05-27T04:47:15.183Z,10.10
2018-05-27T04:50:17.674Z,10.57
2018-05-27T04:53:20.130Z,10.37
2018-05-27T04:56:22.621Z,9.73
2018-05-27T04:59:25.176Z,9.70
2018-05-27T05:02:27.664Z,10.20
2018-05-27T05:05:30.175Z,10.30
2018-05-27T05:08:32.658Z,9.70
2018-05-27T05:11:35.099Z,9.67
2018-05-27T05:14:37.625Z,10.30
2018-05-27T05:17:40.119Z,9.50
2018-05-27T05:20:42.625Z,10.27
2018-05-27T05:23:45.127Z,9.73
2018-05-27T05:26:47.570Z,10.40
2018-05-27T05:29:50.100Z,10.37
2018-05-27T05:32:52.618Z,10.90
2018-05-27T05:35:55.055Z,10.03
2018-05-27T05:38:57.519Z,10.77
2018-05-27T05:42:00.083Z,10.53
2018-05-27T05:45:02.547Z,11.13
2018-05-27T05:48:05.082Z,10.70
2018-05-27T05:51:07.674Z,11.00
2018-05-27T05:54:10.215Z,10.53
2018-05-27T05:57:12.715Z,11.27
2018-05-27T06:00:15.192Z,10.80
2018-05-27T06:03:17.685Z,11.00
2018-05-27T06:06:20.203Z,10.57
2018-05-27T06:09:22.642Z,11.10
2018-05-27T06:12:25.151Z,11.37
2018-05-27T06:15:27.656Z,10.27
2018-05-27T06:18:30.160Z,11.10
2018-05-27T06:21:32.620Z,12.20
2018-05-27T06:24:35.103Z,11.90
2018-05-27T06:27:37.707Z,11.70
2018-05-27T06:30:40.222Z,11.50
2018-05-27T06:33:42.697Z,12.30
2018-05-27T06:36:45.137Z,11.40
2018-05-27T06:39:47.644Z,11.57
2018-05-27T06:42:50.092Z,11.40
2018-05-27T06:45:52.672Z,11.70
2018-05-27T06:48:55.152Z,11.93
2018-05-27T06:51:57.641Z,11.93
2018-05-27T06:55:00.100Z,11.40
2018-05-27T06:58:02.615Z,10.93
2018-05-27T07:01:05.052Z,11.03
2018-05-27T07:04:07.553Z,12.80
2018-05-27T07:07:10.132Z,12.40
2018-05-27T07:10:12.630Z,12.50
2018-05-27T07:13:15.111Z,13.40
2018-05-27T07:16:17.571Z,12.50
2018-05-27T07:19:20.046Z,13.00
2018-05-27T07:22:22.513Z,13.37
2018-05-27T07:25:24.988Z,13.80
2018-05-27T07:28:27.471Z,14.90
2018-05-27T07:31:29.975Z,14.13
2018-05-27T07:34:32.484Z,14.70
2018-05-27T07:37:35.012Z,14.17
2018-05-27T07:40:37.517Z,14.70
2018-05-27T07:43:40.042Z,13.03
2018-05-27T07:46:42.563Z,15.17
2018-05-27T07:49:45.011Z,13.57
2018-05-27T07:52:47.545Z,14.47
2018-05-27T07:55:50.028Z,14.17
2018-05-27T07:58:52.553Z,14.57
2018-05-27T08:01:55.108Z,13.57
2018-05-27T08:04:57.653Z,14.30
2018-05-27T08:08:00.158Z,14.30
2018-05-27T08:11:02.718Z,13.87
2018-05-27T08:14:05.250Z,14.00
2018-05-27T08:17:07.765Z,13.67
2018-05-27T08:20:10.244Z,13.83
2018-05-27T08:23:12.743Z,13.93
2018-05-27T08:26:15.337Z,13.10
2018-05-27T08:29:17.851Z,13.80
2018-05-27T08:32:20.325Z,13.00
2018-05-27T08:35:22.804Z,13.90
2018-05-27T08:38:25.364Z,14.77
2018-05-27T08:41:27.868Z,13.80
2018-05-27T08:44:30.434Z,12.87
2018-05-27T08:47:33.033Z,13.07
2018-05-27T08:50:35.437Z,12.67
2018-05-27T08:53:37.941Z,11.83
2018-05-27T08:56:40.533Z,12.20
2018-05-27T08:59:43.158Z,11.63
2018-05-27T09:02:45.660Z,11.93
2018-05-27T09:05:48.173Z,12.50
2018-05-27T09:08:50.661Z,12.40
2018-05-27T09:11:53.228Z,11.37
2018-05-27T09:14:55.692Z,11.57
2018-05-27T09:17:58.217Z,12.20
2018-05-27T09:21:00.799Z,11.00
2018-05-27T09:24:03.448Z,10.80
2018-05-27T09:27:05.912Z,11.50
2018-05-27T09:30:08.409Z,10.60
2018-05-27T09:33:10.912Z,10.40
2018-05-27T09:36:13.463Z,10.90
2018-05-27T09:39:16.011Z,10.77
2018-05-27T09:42:18.427Z,10.33
2018-05-27T09:45:21.073Z,11.00
2018-05-27T09:48:24.648Z,10.90
2018-05-27T09:51:27.253Z,10.13
2018-05-27T09:54:29.639Z,10.20
2018-05-27T09:57:32.257Z,10.57
2018-05-27T10:00:34.753Z,10.33
2018-05-27T10:03:37.257Z,10.63
2018-05-27T10:06:39.772Z,11.60
2018-05-27T10:09:42.275Z,10.80
2018-05-27T10:12:44.842Z,10.77
2018-05-27T10:15:47.332Z,9.93
2018-05-27T10:18:49.900Z,10.20
2018-05-27T10:21:52.352Z,9.60
2018-05-27T10:24:54.945Z,9.57
2018-05-27T10:27:57.440Z,9.60
2018-05-27T10:31:00.676Z,9.43
2018-05-27T10:34:03.240Z,9.13
2018-05-27T10:37:05.743Z,9.80
2018-05-27T10:40:08.173Z,8.90
2018-05-27T10:43:10.749Z,8.53
2018-05-27T10:46:13.308Z,8.70
2018-05-27T10:49:15.893Z,8.83
2018-05-27T10:52:18.495Z,8.30
2018-05-27T10:55:21.078Z,9.63
2018-05-27T10:58:23.648Z,9.60
2018-05-27T11:01:26.113Z,9.47
2018-05-27T11:04:28.619Z,8.80
2018-05-27T11:07:31.104Z,9.10
2018-05-27T11:10:33.620Z,9.00
2018-05-27T11:13:36.135Z,8.90
2018-05-27T11:16:38.713Z,8.57
2018-05-27T11:19:41.165Z,9.33
2018-05-27T11:22:43.738Z,9.20
2018-05-27T11:25:46.246Z,8.90
2018-05-27T11:28:48.726Z,9.30
2018-05-27T11:31:51.322Z,9.20
2018-05-27T11:34:53.830Z,8.97
2018-05-27T11:37:56.374Z,9.00
2018-05-27T11:40:58.835Z,8.83
2018-05-27T11:44:01.379Z,9.37
2018-05-27T11:47:04.007Z,8.63
2018-05-27T11:50:06.505Z,9.10
2018-05-27T11:53:09.151Z,8.90
2018-05-27T11:56:11.681Z,8.30
2018-05-27T11:59:14.385Z,8.73
2018-05-27T12:02:16.838Z,8.60
2018-05-27T12:05:19.434Z,8.70
2018-05-27T12:08:21.931Z,9.70
2018-05-27T12:11:24.440Z,8.87
2018-05-27T12:14:27.002Z,8.80
2018-05-27T12:17:29.509Z,8.30
2018-05-27T12:20:32.016Z,9.43
2018-05-27T12:23:34.696Z,8.80
2018-05-27T12:26:37.249Z,9.13
2018-05-27T12:29:39.768Z,9.23
2018-05-27T12:32:42.272Z,8.97
2018-05-27T12:35:44.720Z,9.00
2018-05-27T12:38:47.303Z,8.53
2018-05-27T12:41:49.801Z,8.57
2018-05-27T12:44:52.333Z,8.87
2018-05-27T12:47:54.791Z,8.83
2018-05-27T12:50:57.345Z,8.80
2018-05-27T12:53:59.862Z,8.70
2018-05-27T12:57:02.363Z,8.80
2018-05-27T13:00:04.925Z,8.50
2018-05-27T13:03:07.455Z,9.03
2018-05-27T13:06:09.910Z,8.27
2018-05-27T13:09:12.436Z,7.90
2018-05-27T13:12:14.975Z,8.17
2018-05-27T13:15:17.467Z,8.57
2018-05-27T13:18:19.937Z,8.73
2018-05-27T13:21:22.456Z,8.97
2018-05-27T13:24:25.125Z,9.30
2018-05-27T13:27:27.591Z,9.37
2018-05-27T13:30:30.072Z,8.93
2018-05-27T13:33:32.537Z,8.83
2018-05-27T13:36:35.068Z,9.60
2018-05-27T13:39:37.537Z,8.73
2018-05-27T13:42:40.031Z,8.93
2018-05-27T13:45:42.497Z,8.80
2018-05-27T13:48:45.087Z,9.20
2018-05-27T13:51:47.675Z,8.93
2018-05-27T13:54:50.178Z,8.67
2018-05-27T13:57:52.650Z,9.03
2018-05-27T14:00:55.191Z,9.83
2018-05-27T14:03:57.696Z,9.87
2018-05-27T14:07:00.218Z,9.13
2018-05-27T14:10:02.766Z,8.90
2018-05-27T14:13:05.267Z,9.47
2018-05-27T14:16:07.749Z,9.40
2018-05-27T14:19:10.244Z,8.83
2018-05-27T14:22:12.725Z,9.00
2018-05-27T14:25:15.228Z,9.73
2018-05-27T14:28:17.716Z,8.93
2018-05-27T14:31:20.211Z,9.20
2018-05-27T14:34:22.708Z,9.87
2018-05-27T14:37:25.245Z,9.57
2018-05-27T14:40:27.732Z,9.03
2018-05-27T14:43:30.247Z,9.37
2018-05-27T14:46:32.741Z,9.27
2018-05-27T14:49:35.252Z,9.30
2018-05-27T14:52:37.726Z,9.80
2018-05-27T14:55:40.232Z,9.30
2018-05-27T14:58:42.751Z,10.27
2018-05-27T15:01:45.337Z,10.03
2018-05-27T15:04:47.858Z,9.93
2018-05-27T15:07:50.418Z,9.93
2018-05-27T15:10:52.978Z,9.90
2018-05-27T15:13:55.466Z,9.83
2018-05-27T15:16:57.978Z,10.13
2018-05-27T15:20:00.483Z,9.17
2018-05-27T15:23:02.976Z,10.03
2018-05-27T15:26:05.653Z,10.73
2018-05-27T15:29:08.166Z,10.10
2018-05-27T15:32:10.689Z,9.50
2018-05-27T15:35:13.229Z,10.40
2018-05-27T15:38:15.689Z,9.63
2018-05-27T15:41:18.198Z,9.83
2018-05-27T15:44:20.688Z,9.60
2018-05-27T15:47:23.197Z,10.23
2018-05-27T15:50:25.707Z,10.00
2018-05-27T15:53:28.202Z,9.60
2018-05-27T15:56:30.708Z,9.50
2018-05-27T15:59:33.190Z,9.80
2018-05-27T16:02:35.745Z,9.43
2018-05-27T16:05:38.350Z,10.30
2018-05-27T16:08:40.858Z,10.20
2018-05-27T16:11:43.343Z,10.30
2018-05-27T16:14:45.849Z,9.37
2018-05-27T16:17:48.359Z,9.73
2018-05-27T16:20:50.822Z,10.87
2018-05-27T16:23:53.347Z,10.23
2018-05-27T16:26:55.877Z,9.17
2018-05-27T16:29:58.413Z,9.70
2018-05-27T16:33:00.901Z,10.00
2018-05-27T16:36:03.401Z,9.20
2018-05-27T16:39:05.869Z,9.77
2018-05-27T16:42:08.424Z,10.10
2018-05-27T16:45:10.932Z,9.97
2018-05-27T16:48:13.386Z,9.70
2018-05-27T16:51:15.869Z,9.57
2018-05-27T16:54:18.348Z,9.90
2018-05-27T16:57:20.835Z,9.70
2018-05-27T17:00:23.303Z,10.47
2018-05-27T17:03:25.787Z,9.20
2018-05-27T17:06:28.244Z,9.27
2018-05-27T17:09:30.789Z,8.83
2018-05-27T17:12:33.382Z,9.57
2018-05-27T17:15:35.923Z,8.50
2018-05-27T17:18:38.407Z,8.53
2018-05-27T17:21:40.893Z,8.30
2018-05-27T17:24:43.382Z,8.73
2018-05-27T17:27:45.972Z,8.73
2018-05-27T17:30:48.440Z,9.80
2018-05-27T17:33:51.339Z,10.30
2018-05-27T17:36:53.813Z,10.00
2018-05-27T17:39:56.279Z,10.37
2018-05-27T17:42:58.785Z,11.40
2018-05-27T17:46:01.288Z,11.20
2018-05-27T17:49:03.805Z,10.30
2018-05-27T17:52:06.455Z,11.30
2018-05-27T17:55:08.952Z,10.80
2018-05-27T17:58:11.488Z,11.23
2018-05-27T18:01:13.955Z,11.80
2018-05-27T18:04:16.470Z,11.40
2018-05-27T18:07:19.050Z,12.37
2018-05-27T18:10:21.595Z,11.73
2018-05-27T18:13:24.109Z,11.67
2018-05-27T18:16:26.654Z,10.87
2018-05-27T18:19:29.148Z,11.53
2018-05-27T18:22:31.683Z,11.03
2018-05-27T18:25:34.850Z,10.83
2018-05-27T18:28:37.345Z,9.90
2018-05-27T18:31:39.982Z,10.07
2018-05-27T18:34:42.510Z,10.47
2018-05-27T18:37:45.063Z,10.00
2018-05-27T18:40:47.586Z,10.13
2018-05-27T18:43:50.731Z,9.23
2018-05-27T18:46:53.299Z,9.90
2018-05-27T18:49:55.793Z,10.00
2018-05-27T18:52:58.433Z,9.20
2018-05-27T18:56:00.919Z,9.27
2018-05-27T18:59:03.419Z,10.70
2018-05-27T19:02:05.966Z,10.80
2018-05-27T19:05:08.515Z,10.40
2018-05-27T19:08:11.045Z,10.80
2018-05-27T19:11:13.549Z,10.27
2018-05-27T19:14:16.031Z,9.90
2018-05-27T19:17:18.572Z,11.47
2018-05-27T19:20:21.090Z,10.50
2018-05-27T19:23:23.641Z,10.50
2018-05-27T19:26:26.183Z,10.60
2018-05-27T19:29:28.690Z,10.30
2018-05-27T19:32:31.206Z,11.17
2018-05-27T19:35:33.721Z,11.30
2018-05-27T19:38:36.256Z,11.00
2018-05-27T19:41:38.791Z,9.93
2018-05-27T19:44:41.323Z,10.87
2018-05-27T19:47:43.941Z,9.60
2018-05-27T19:50:46.444Z,10.20
2018-05-27T19:53:48.962Z,10.27
2018-05-27T19:56:51.426Z,10.20
2018-05-27T19:59:53.945Z,9.10
2018-05-27T20:02:56.435Z,9.40
2018-05-27T20:05:58.940Z,9.63
2018-05-27T20:09:01.487Z,10.30
2018-05-27T20:12:03.954Z,9.70
2018-05-27T20:15:06.552Z,10.97
2018-05-27T20:18:09.146Z,10.77
2018-05-27T20:21:11.684Z,10.37
2018-05-27T20:24:15.215Z,10.10
2018-05-27T20:27:17.756Z,9.80
2018-05-27T20:30:20.224Z,10.40
2018-05-27T20:33:22.735Z,10.17
2018-05-27T20:36:25.769Z,10.03
2018-05-27T20:39:28.430Z,10.63
2018-05-27T20:42:30.996Z,10.47
2018-05-27T20:45:33.549Z,11.30
2018-05-27T20:48:36.039Z,10.83
2018-05-27T20:51:38.557Z,10.90
2018-05-27T20:54:41.040Z,10.57
2018-05-27T20:57:43.704Z,10.90
2018-05-27T21:00:46.222Z,10.50
2018-05-27T21:03:48.744Z,10.73
2018-05-27T21:06:51.240Z,11.17
2018-05-27T21:09:53.840Z,10.03
2018-05-27T21:12:56.629Z,10.23
2018-05-27T21:15:59.124Z,10.77
2018-05-27T21:19:01.706Z,10.83
2018-05-27T21:22:04.203Z,11.47
2018-05-27T21:25:06.749Z,11.03
2018-05-27T21:28:09.263Z,11.23
2018-05-27T21:31:11.745Z,10.70
2018-05-27T21:34:14.205Z,11.50
2018-05-27T21:37:16.675Z,11.10
2018-05-27T21:40:19.276Z,10.10
2018-05-27T21:43:21.868Z,10.27
2018-05-27T21:46:24.361Z,10.57
2018-05-27T21:49:26.853Z,11.23
2018-05-27T21:52:29.331Z,10.87
2018-05-27T21:55:31.891Z,11.73
2018-05-27T21:58:34.380Z,14.10
2018-05-27T22:01:36.895Z,14.00
2018-05-27T22:04:39.390Z,12.80
2018-05-27T22:07:42.035Z,12.43
2018-05-27T22:10:44.696Z,12.03
2018-05-27T22:13:47.176Z,13.00
2018-05-27T22:16:49.730Z,13.63
2018-05-27T22:19:52.173Z,13.27
2018-05-27T22:22:54.690Z,12.90
2018-05-27T22:25:57.291Z,13.40
2018-05-27T22:28:59.791Z,13.23
2018-05-27T22:32:02.330Z,12.60
2018-05-27T22:35:04.820Z,12.70
2018-05-27T22:38:07.334Z,12.43
2018-05-27T22:41:09.820Z,11.47
2018-05-27T22:44:12.371Z,11.80
2018-05-27T22:47:14.866Z,11.87
2018-05-27T22:50:17.312Z,11.20
2018-05-27T22:53:19.786Z,11.13
2018-05-27T22:56:22.320Z,11.30
2018-05-27T22:59:24.816Z,10.00
2018-05-27T23:02:27.287Z,11.00
2018-05-27T23:05:29.816Z,11.40
2018-05-27T23:08:32.345Z,11.20
2018-05-27T23:11:34.830Z,11.07
2018-05-27T23:14:37.321Z,10.97
2018-05-27T23:17:39.861Z,10.77
2018-05-27T23:20:42.380Z,10.97
2018-05-27T23:23:44.891Z,12.50
2018-05-27T23:26:47.398Z,11.03
2018-05-27T23:29:49.885Z,11.10
2018-05-27T23:32:52.348Z,12.30
2018-05-27T23:35:54.871Z,11.97
2018-05-27T23:38:57.327Z,12.07
2018-05-27T23:41:59.825Z,11.80
2018-05-27T23:45:02.318Z,11.73
2018-05-27T23:48:04.811Z,11.83
2018-05-27T23:51:07.273Z,12.33
2018-05-27T23:54:09.757Z,12.30
2018-05-27T23:57:12.206Z,12.10
